MBS International Airport
KMBS : rendu visible

Aérodrome :











RETROUVEZ-NOUS SUR...

 
LOGIN :

S'inscrire | Disclaimer

   EN    FR    IT 

 









Légende :    VFR   VFR Marginal   IFR   IFR Intensif   IFR Très Intensif
Visi : 
Plafond : 
>= 8 km
>= 3000ft
5 à 8 km
1000 à 3000 ft
1500m à 5 km
500 à 1000 ft
800 à 1500m
200 à 500 ft
< 800m
< 200 ft
Symboles :   Orages  Brouillard  Fortes neiges  Fortes précipitations  Vent > 20 kt






- Altitude de l'aérodrome : 668 ft
- Code IATA : MBS


KMBS - MBS International

DERNIER METAR :
  • 290624Z AUTO 13009KT 3SM -RA BKN005 OVC045 09/06 A2964 RMK AO2 LTG DSNT N TSE05 P0015 T00890056

METARs EXPIRÉS :
  • 290615Z AUTO 12010KT 1 3/4SM RA BKN005 OVC045 08/05 A2964 RMK AO2 LTG DSNT NW-E TSE05 P0013 T00830050
  • 290604Z AUTO 10011KT 2SM TSRA BKN004 BKN026 OVC045 08/05 A2963 RMK AO2 LTG DSNT E AND SE AND NW P0007 T00830050
  • 290553Z AUTO 13011KT 5SM -TSRA OVC004 08/05 A2966 RMK AO2 LTG DSNT ALQDS RAE37B52 TSB50 SLP045 P0007 60037 T00830050 10083 20044 58007
  • 290533Z AUTO 08009KT 4SM -RA BKN004 BKN037 OVC050 08/05 A2964 RMK AO2 LTG DSNT E-SW P0006 T00780050
  • 290523Z AUTO 07013G17KT 2 1/2SM RA BKN003 BKN037 OVC050 08/04 A2963 RMK AO2 LTG DSNT ALQDS PRESFR P0006 T00780044
  • 290453Z AUTO 09007KT 3SM -RA BKN003 OVC050 07/04 A2968 RMK AO2 LTG DSNT SW AND W SLP054 P0008 T00670039 400720039
  • 290432Z AUTO 09008KT 2SM RA BKN003 OVC039 06/03 A2970 RMK AO2 P0006 T00610028
  • 290415Z AUTO 10008KT 2 1/2SM -RA SCT005 BKN031 OVC047 06/03 A2972 RMK AO2 P0004 T00560028
  • 290406Z AUTO 09008KT 3SM -RA FEW006 BKN033 OVC065 06/02 A2971 RMK AO2 PRESFR P0002 T00560022
  • 290401Z AUTO 08008KT 2 1/2SM RA SCT006 BKN025 OVC049 06/02 A2972 RMK AO2 P0002 T00560017

TAF KMBS
Valide du 29 à 06h jusqu'au 30 à 06h UTC


290540Z 2906/3006 08008KT 4SM -SHRA BR OVC004
TEMPO 2906/2907 2SM TSRA BR OVC004CB
FM290700 08009KT 5SM BR OVC005
FM291200 16010KT P6SM OVC005
FM291500 22016G26KT P6SM SCT025 OVC040
FM291700 24018G32KT P6SM -SHRA OVC028



MET'MAP, la Météo Aéronautique d'un coup d'oeil ! - Copyright ORBIFLY Décembre 2007 - Disclaimer

ORBIFLY MET'MAP TEAM :

Programmation & Développement : Alexandra Zaïnal
Sur une idée originale de : Baudouin d'Aumeries
Assistance à la programmation : Marc-Olivier Méhu
Soutien technique & logistique : Manuel Goepfert

Contact : metmap@orbifly.com




SOURCES & CREDITS :

   NOAA       Earth
Advisory